Latest Weather Observations for Double Island Point

IDQ60801

Issued at 6:02 pm EST Wednesday 27 May 2015 (issued every 30 minutes, with the page automatically refreshed every 10 minutes)

About weather observations | Map of weather stations | Latest weather observations for QLD | Other Formats
Station Details ID: 040068 Name: DOUBLE ISLAND POINT LIGHTHOUSE Lat: -25.93 Lon: 153.19 Height: 95.64 m
Data from the previous 72 hours. | See also: Recent months at Double Island Point
Date/Time
EST
Temp
°C
App
Temp
°C
Dew
Point
Rel
Hum
%
Delta-T
°C
Wind Press
QNH
hPa
Press
MSL
hPa
Rain
since 9 am
mm
Dir
 
Spd
km/h
Gust
km/h
Spd
kts
Gust
kts
27/06:00pm 19.7 16.4 16.0 79 2.2 SE 28 33 15 18 1022.1 1021.8 0.0
27/05:30pm 19.7 16.4 16.0 79 2.2 SE 28 32 15 17 1021.9 1021.6 0.0
27/05:00pm 19.5 16.0 15.6 78 2.3 SE 28 30 15 16 1021.9 1021.6 0.0
27/04:30pm 19.7 16.8 16.0 79 2.2 SE 26 30 14 16 1021.5 1021.2 0.0
27/04:00pm 19.7 17.1 15.8 78 2.3 SSE 24 28 13 15 1021.2 1020.9 0.0
27/03:30pm 19.8 16.7 15.7 77 2.4 SE 26 28 14 15 1021.3 1021.0 0.0
27/03:00pm 19.9 16.8 15.7 77 2.5 SE 26 32 14 17 1021.3 1021.0 0.0
27/02:30pm 20.3 17.0 16.1 77 2.5 SE 28 32 15 17 1021.4 1021.1 0.0
27/02:00pm 20.2 17.3 16.0 77 2.5 SE 26 32 14 17 1021.7 1021.4 0.0
27/01:30pm 20.3 17.1 16.3 78 2.4 SSE 28 32 15 17 1021.7 1021.4 0.0
27/01:00pm 20.3 17.2 16.5 79 2.3 SSE 28 37 15 20 1022.1 1021.8 0.0
27/12:30pm 19.8 16.3 16.4 81 2.1 S 30 35 16 19 1022.6 1022.4 0.0
27/12:00pm 19.9 16.5 16.7 82 1.9 S 30 39 16 21 1022.8 1022.6 0.0
27/11:30am 19.8 15.8 16.3 80 2.1 S 32 39 17 21 1023.4 1023.2 0.0
27/11:00am 19.3 16.2 16.5 84 1.7 S 28 37 15 20 1023.7 1023.5 0.0
27/10:30am 19.3 15.1 16.3 83 1.8 S 33 41 18 22 1023.9 1023.7 0.0
27/10:00am 19.1 14.9 16.1 83 1.8 S 33 41 18 22 1024.0 1023.8 0.0
27/09:30am 18.5 14.2 15.9 85 1.5 S 33 41 18 22 1024.1 1023.9 0.0
27/09:00am 18.0 13.5 15.4 85 1.5 S 33 43 18 23 1024.2 1024.0 14.2
27/08:30am 18.1 14.3 15.7 86 1.4 S 30 39 16 21 1024.1 1023.9 14.2
27/08:00am 18.1 14.4 15.9 87 1.3 S 30 37 16 20 1023.8 1023.6 14.2
27/07:30am 18.0 13.9 16.0 88 1.2 S 32 37 17 20 1023.6 1023.4 14.2
27/07:00am 17.8 13.7 16.0 89 1.1 S 32 39 17 21 1023.2 1023.0 14.2
27/06:30am 17.6 14.2 15.8 89 1.1 S 28 33 15 18 1022.9 1022.7 14.2
27/06:00am 17.6 14.2 15.8 89 1.1 S 28 33 15 18 1022.7 1022.5 14.2
27/05:30am 17.7 14.7 15.9 89 1.1 S 26 32 14 17 1022.6 1022.4 14.2
27/05:00am 18.1 15.7 15.5 85 1.5 S 22 28 12 15 1022.2 1021.9 14.2
27/04:30am 18.9 16.9 15.0 78 2.3 ESE 19 24 10 13 1022.3 1022.1 14.2
27/04:00am 18.8 16.6 14.9 78 2.3 E 20 24 11 13 1022.3 1022.1 14.2
27/03:30am 18.6 16.7 15.7 83 1.7 E 20 24 11 13 1022.5 1022.3 14.2
27/03:00am 18.5 15.0 15.4 82 1.8 E 28 33 15 18 1022.6 1022.4 14.2
27/02:30am 19.0 16.9 15.3 79 2.2 ESE 20 28 11 15 1023.0 1022.8 14.2
27/02:00am 19.6 16.7 15.0 75 2.7 SE 24 26 13 14 1022.8 1022.6 14.2
27/01:30am 19.3 17.0 15.6 79 2.2 SE 22 24 12 13 1023.0 1022.8 14.2
27/01:00am 18.7 16.3 16.3 86 1.4 S 24 32 13 17 1023.4 1023.2 14.2
27/12:30am 18.3 15.0 16.1 87 1.3 S 28 32 15 17 1023.7 1023.5 14.2
27/12:00am 18.4 15.9 16.2 87 1.3 S 24 32 13 17 1023.7 1023.5 14.2
 
Date/Time
EST
Temp
°C
App
Temp
°C
Dew
Point
Rel
Hum
%
Delta-T
°C
Wind Press
QNH
hPa
Press
MSL
hPa
Rain
since 9 am
mm
Dir
 
Spd
km/h
Gust
km/h
Spd
kts
Gust
kts
26/11:30pm 18.3 15.0 16.1 87 1.3 S 28 35 15 19 1023.8 1023.6 14.2
26/11:00pm 18.6 15.6 15.8 84 1.7 S 26 30 14 16 1023.9 1023.7 14.2
26/10:30pm 18.8 17.5 15.9 83 1.7 S 17 24 9 13 1024.4 1024.1 14.2
26/10:00pm 19.0 17.6 15.5 80 2.1 SSE 17 20 9 11 1024.8 1024.5 14.2
26/09:30pm 19.8 16.9 15.0 74 2.8 SE 24 28 13 15 1024.7 1024.4 14.2
26/09:00pm 19.7 17.4 15.6 77 2.4 ESE 22 28 12 15 1024.6 1024.3 14.2
26/08:30pm 19.8 16.6 15.2 75 2.7 SE 26 32 14 17 1024.8 1024.5 14.2
26/08:00pm 19.8 17.0 15.4 76 2.6 SE 24 30 13 16 1025.0 1024.7 14.2
26/07:30pm 19.7 16.4 15.1 75 2.7 SE 26 32 14 17 1024.9 1024.6 14.2
26/07:00pm 19.8 15.7 15.0 74 2.8 SE 30 33 16 18 1024.6 1024.3 14.2
26/06:30pm 19.7 17.1 16.0 79 2.2 SSE 24 28 13 15 1024.7 1024.4 14.2
26/06:00pm 19.2 16.1 15.5 79 2.2 SSE 26 32 14 17 1024.1 1023.9 14.2
26/05:30pm 19.5 15.6 15.4 77 2.4 SSE 30 35 16 19 1024.1 1023.9 14.2
26/05:00pm 19.5 15.3 15.8 79 2.2 SSE 32 37 17 20 1023.7 1023.5 14.2
26/04:30pm 19.4 15.4 16.1 81 2.0 SSE 32 41 17 22 1023.2 1023.0 14.2
26/04:00pm 19.3 15.0 15.8 80 2.1 SSE 33 41 18 22 1023.2 1023.0 14.2
26/03:30pm 19.3 15.0 16.0 81 2.0 SSE 33 41 18 22 1023.2 1023.0 14.2
26/03:00pm 19.4 15.3 15.9 80 2.1 SSE 32 41 17 22 1023.4 1023.2 14.2
26/02:30pm 19.2 16.1 16.6 85 1.6 SSE 28 35 15 19 1023.6 1023.4 14.2
26/02:26pm 19.0 15.9 16.6 86 1.4 SSE 28 35 15 19 1023.8 1023.6 14.2
26/02:00pm 17.8 19.7 15.8 88 1.2 CALM 0 6 0 3 1024.1 1023.9 14.0
26/01:30pm 18.2 18.1 16.0 87 1.3 E 11 15 6 8 1024.5 1024.2 8.0
26/01:00pm 18.3 17.7 15.7 85 1.5 E 13 19 7 10 1024.9 1024.6 4.0
26/12:32pm 19.3 14.6 15.8 80 2.1 SSE 35 46 19 25 1025.3 1025.0 0.0
26/12:30pm 19.5 14.5 16.2 81 2.0 SSE 37 46 20 25 1025.1 1024.8 0.0
26/12:00pm 19.3 13.9 16.0 81 2.0 SSE 39 48 21 26 1025.2 1024.9 0.0
26/11:30am 19.1 13.9 15.6 80 2.1 SSE 37 46 20 25 1025.8 1025.5 0.0
26/11:00am 19.3 14.6 15.8 80 2.1 SSE 35 48 19 26 1026.2 1025.9 0.0
26/10:30am 19.2 13.9 15.3 78 2.3 SSE 37 46 20 25 1026.4 1026.1 0.0
26/10:00am 19.3 14.0 15.2 77 2.4 SSE 37 46 20 25 1026.7 1026.4 0.0
26/09:30am 19.5 14.2 15.4 77 2.4 S 37 46 20 25 1026.8 1026.5 0.0
26/09:00am 18.5 13.6 15.2 81 1.9 SSE 35 44 19 24 1027.0 1026.7 0.0
26/08:30am 18.5 13.9 15.0 80 2.0 SSE 33 43 18 23 1026.8 1026.5 0.0
26/08:00am 18.1 12.7 15.0 82 1.8 S 37 44 20 24 1026.8 1026.5 0.0
26/07:30am 18.0 12.6 15.1 83 1.7 S 37 44 20 24 1026.7 1026.4 0.0
26/07:00am 18.0 13.5 15.3 84 1.6 SSE 33 44 18 24 1026.5 1026.2 0.0
26/06:30am 18.5 13.4 15.7 84 1.7 SSE 37 46 20 25 1026.7 1026.4 0.0
26/06:00am 18.4 12.4 15.5 83 1.7 S 41 48 22 26 1026.5 1026.2 0.0
26/05:30am 18.2 12.2 15.5 84 1.6 SSE 41 48 22 26 1026.0 1025.7 0.0
26/05:00am 18.1 12.0 15.2 83 1.7 SSE 41 50 22 27 1025.7 1025.4 0.0
26/04:30am 18.1 11.6 15.2 83 1.7 SSE 43 50 23 27 1025.7 1025.4 0.0
26/04:00am 17.9 12.5 15.0 83 1.7 SSE 37 44 20 24 1025.7 1025.4 0.0
26/03:30am 18.2 12.9 15.3 83 1.7 S 37 44 20 24 1026.3 1026.0 0.0
26/03:00am 18.7 14.4 15.8 83 1.7 SSE 33 43 18 23 1026.0 1025.7 0.0
26/02:30am 18.8 14.3 15.5 81 2.0 SSE 33 44 18 24 1026.2 1025.9 0.0
26/02:00am 19.7 14.4 14.1 70 3.2 SSE 35 44 19 24 1026.4 1026.1 0.0
26/01:30am 19.7 13.7 12.2 62 4.2 SE 35 41 19 22 1026.6 1026.3 0.0
26/01:00am 19.5 13.8 11.8 61 4.3 SE 33 37 18 20 1026.9 1026.6 0.0
26/12:30am 19.5 13.4 11.8 61 4.3 SE 35 41 19 22 1027.1 1026.8 0.0
26/12:00am 19.6 13.6 12.1 62 4.2 SE 35 41 19 22 1027.3 1027.0 0.0
 
Date/Time
EST
Temp
°C
App
Temp
°C
Dew
Point
Rel
Hum
%
Delta-T
°C
Wind Press
QNH
hPa
Press
MSL
hPa
Rain
since 9 am
mm
Dir
 
Spd
km/h
Gust
km/h
Spd
kts
Gust
kts
25/11:30pm 19.8 13.2 11.3 58 4.7 SE 37 43 20 23 1027.6 1027.3 0.0
25/11:00pm 19.9 13.3 12.7 63 4.1 SE 39 46 21 25 1027.2 1026.9 0.0
25/10:30pm 19.9 13.3 11.4 58 4.7 SE 37 44 20 24 1027.5 1027.2 0.0
25/10:00pm 19.9 13.3 11.4 58 4.7 SE 37 43 20 23 1027.8 1027.5 0.0
25/09:30pm 20.1 12.5 10.5 54 5.2 SE 41 48 22 26 1027.9 1027.6 0.0
25/09:00pm 20.0 13.0 11.2 57 4.8 SE 39 46 21 25 1028.0 1027.7 0.0
25/08:30pm 20.0 12.7 11.7 59 4.6 SE 41 48 22 26 1027.6 1027.3 0.0
25/08:00pm 20.0 13.2 12.0 60 4.4 SE 39 46 21 25 1027.5 1027.2 0.0
25/07:30pm 20.0 12.8 12.0 60 4.5 SE 41 46 22 25 1027.5 1027.2 0.0
25/07:00pm 19.9 13.2 12.2 61 4.3 SE 39 46 21 25 1027.4 1027.1 0.0
25/06:30pm 20.0 13.2 12.0 60 4.5 SE 39 46 21 25 1027.3 1027.0 0.0
25/06:00pm 20.1 13.1 11.3 57 4.8 SE 39 46 21 25 1027.1 1026.8 0.0
25/05:30pm 20.0 13.3 12.3 61 4.3 SSE 39 44 21 24 1027.1 1026.8 0.0
25/05:00pm 20.0 13.1 11.7 59 4.6 SSE 39 44 21 24 1027.1 1026.8 0.0
25/04:30pm 20.1 13.3 12.1 60 4.5 SSE 39 44 21 24 1026.8 1026.5 0.0
25/04:00pm 20.3 13.3 11.2 56 5.0 SE 39 44 21 24 1026.9 1026.6 0.0
25/03:30pm 20.5 13.3 12.0 58 4.8 SE 41 46 22 25 1026.6 1026.3 0.0
25/03:00pm 20.7 14.0 12.4 59 4.7 SE 39 44 21 24 1026.6 1026.3 0.0
25/02:30pm 20.7 13.9 11.9 57 4.9 SSE 39 46 21 25 1026.5 1026.2 0.0
25/02:00pm 20.6 13.0 11.8 57 4.9 SSE 43 50 23 27 1026.6 1026.3 0.0
25/01:30pm 21.0 14.4 12.7 59 4.7 SE 39 46 21 25 1026.6 1026.3 0.0
25/01:00pm 21.0 14.4 12.7 59 4.7 SE 39 43 21 23 1027.1 1026.8 0.0
25/12:30pm 20.9 14.5 13.1 61 4.5 SE 39 46 21 25 1027.3 1027.0 0.0
25/12:00pm 21.3 14.2 12.2 56 5.1 SE 41 46 22 25 1027.6 1027.3 0.0
25/11:30am 21.4 14.5 12.8 58 4.9 SE 41 48 22 26 1028.4 1028.1 0.0
25/11:00am 21.7 15.6 13.1 58 4.9 SE 37 43 20 23 1028.7 1028.4 0.0
25/10:30am 22.0 16.1 13.6 59 4.9 SE 37 43 20 23 1029.0 1028.7 0.0
25/10:00am 20.8 14.0 13.0 61 4.4 SE 41 50 22 27 1029.0 1028.7 0.0
25/09:30am 21.2 14.2 12.6 58 4.9 SE 41 48 22 26 1029.1 1028.8 0.0
25/09:00am 21.7 14.8 13.9 61 4.5 SE 43 48 23 26 1028.9 1028.6 1.6
25/08:30am 20.9 12.9 13.4 62 4.3 SE 48 57 26 31 1028.4 1028.1 1.6
25/08:00am 20.2 12.7 12.7 62 4.2 SE 44 54 24 29 1028.1 1027.8 1.6
25/07:30am 20.1 11.9 12.8 63 4.1 SE 48 57 26 31 1027.9 1027.6 1.6
25/07:00am 20.1 11.4 12.6 62 4.2 SE 50 57 27 31 1027.9 1027.6 1.6
25/06:30am 19.8 12.0 13.0 65 3.9 SE 46 56 25 30 1027.8 1027.5 1.6
25/06:00am 18.9 11.9 15.2 79 2.2 SSE 46 59 25 32 1027.5 1027.2 1.6
25/05:30am 19.7 11.2 13.2 66 3.7 SE 50 59 27 32 1027.2 1026.9 1.6
25/05:00am 18.9 12.3 15.4 80 2.1 SSE 44 54 24 29 1027.1 1026.8 1.6
25/04:30am 19.7 11.6 12.0 61 4.3 SSE 46 57 25 31 1026.9 1026.6 1.6
25/04:00am 19.9 12.4 12.7 63 4.1 SE 44 50 24 27 1027.0 1026.7 1.6
25/03:30am 19.9 12.0 11.4 58 4.7 SE 44 50 24 27 1027.2 1026.9 1.6
25/03:00am 20.0 11.7 11.5 58 4.7 SSE 46 56 25 30 1027.3 1027.0 1.6
25/02:30am 19.8 11.2 11.6 59 4.5 SSE 48 56 26 30 1027.1 1026.8 1.6
25/02:00am 19.8 10.9 11.8 60 4.4 SE 50 56 27 30 1027.0 1026.7 1.6
25/01:30am 19.8 11.0 12.1 61 4.3 SE 50 57 27 31 1026.9 1026.6 1.6
25/01:00am 19.6 10.2 11.4 59 4.5 SE 52 59 28 32 1027.1 1026.8 1.6
25/12:30am 19.7 10.0 11.7 60 4.4 SE 54 59 29 32 1027.1 1026.8 1.6
25/12:00am 19.7 10.1 12.0 61 4.3 SE 54 61 29 33 1027.3 1027.0 1.6
 
Date/Time
EST
Temp
°C
App
Temp
°C
Dew
Point
Rel
Hum
%
Delta-T
°C
Wind Press
QNH
hPa
Press
MSL
hPa
Rain
since 9 am
mm
Dir
 
Spd
km/h
Gust
km/h
Spd
kts
Gust
kts
24/11:30pm 19.8 9.6 12.1 61 4.3 SE 57 65 31 35 1027.1 1026.8 1.6
24/11:00pm 19.9 10.0 12.4 62 4.2 SE 56 65 30 35 1027.5 1027.2 1.6
24/10:30pm 19.9 10.0 12.9 64 4.0 SE 57 63 31 34 1027.8 1027.5 1.6
24/10:00pm 19.9 10.0 13.1 65 3.9 SE 57 63 31 34 1027.6 1027.3 1.6
24/09:30pm 20.1 10.9 13.3 65 3.9 SE 54 61 29 33 1027.7 1027.4 1.6
24/09:00pm 19.9 11.1 13.4 66 3.7 SE 52 59 28 32 1027.6 1027.3 1.6
24/08:30pm 19.9 10.5 13.8 68 3.5 SE 56 63 30 34 1027.4 1027.1 1.6
24/08:00pm 19.3 10.8 14.3 73 2.9 SE 52 57 28 31 1027.4 1027.1 1.6
24/07:30pm 19.2 13.1 15.3 78 2.3 SE 41 48 22 26 1027.6 1027.3 1.6
24/07:00pm 19.4 11.6 15.1 76 2.5 ESE 50 57 27 31 1027.2 1026.9 1.6
24/06:30pm 19.2 11.3 14.9 76 2.5 ESE 50 61 27 33 1026.9 1026.6 1.6

Other Formats:

Comma delimited format used in spreadsheet applications
http://www.bom.gov.au/fwo/IDQ60801/IDQ60801.94584.axf

JavaScript Object Notation format (JSON) in row-major order
http://www.bom.gov.au/fwo/IDQ60801/IDQ60801.94584.json